International Virtual Aviation Organisation

Russian Federation and Kazakhstan MCD

 

Карточка аэропорта ULLI

Внимание!
Информация на этой странице в стадии наполнения.
Если вы не увидели какой-то информации, или заметили неточность - пожалуйста сообщите нам!
Спасибо!
Команда RU-STAFF
Название аэропортаПулково
Название аэропорта (англ.)Pulkovo
Превышение79 ft. (24.1 m.)
Координаты59°48.018', 30°15.75'
Высота перехода3500ft
Эшелон переходаQNH>=747mm:FL50; QNH<747=>720:FL60; QNH<720:FL70
Коды ответчика0701-0777, 5701-5727
Зона ОрВДСанкт-Петербург РПИ (ULLL)
Данные METARULLI 041300Z 13006MPS 9999 OVC017 M00/M04 Q1023 R88/290050 NOSIG
Проноз погоды (TAF)ULLI 041056Z 0412/0512 14005G10MPS 9999 BKN016 BKN020 TEMPO 0412/0424 -FZDZ -SHSNRA BKN007 BKN017CB TEMPO 0500/0509 5000 -RASN BR BKN006 BECMG 0509/0511 17005G11MPS TEMPO 0509/0512 BKN011
NOTAMshow/hide NOTAM
AWOS   TABLE

Информация о ВПП

ВПП Длина ВПП (м.) Покрытие Курс ВПП Частота ILS
10L3397Цементобетон96110.5
28R3397Цементобетон276111.3
10R3780Цементобетон96111.9
28L3780Цементобетон276108.9

Диспетчерские позиции

Позывной Наименование органа УВД Частота
ULLIFM1Машина сопровождения121.7
ULLI_APPПетербург-Подход119.3
ULLI_TWRПулково-Вышка118.1
ULLI_DELПулково-Деливери121.9
ULLI_R_APPПулково-Круг120.3
ULLI_GNDПулково-Руление121.7



Спутниковое изображение